Time;durP1;ratioP1;P1;durP2;ratioP2;P2;SDS_P1;SDS_P2;PMS_P1;PMS_P2;Temp;Humidity;BMP_temperature;BMP_pressure;BME280_temperature;BME280_humidity;BME280_pressure;Samples;Min_cycle;Max_cycle;Signal;HPM_P1;HPM_P2
2021/06/05 07:52:10;;;;;;;5.25;2.00;;;24.90;50.90;;;;;;6161999;22;884235;-70
2021/06/05 07:54:36;;;;;;;2.72;1.70;;;24.80;51.40;;;;;;6153538;23;20024;-71
2021/06/05 07:57:02;;;;;;;4.10;1.58;;;24.80;51.40;;;;;;6154708;23;20037;-71
2021/06/05 07:59:29;;;;;;;3.17;1.98;;;24.80;51.60;;;;;;6154502;23;19997;-71
2021/06/05 08:01:55;;;;;;;2.20;1.60;;;24.90;51.80;;;;;;6154440;23;20053;-71
2021/06/05 08:04:22;;;;;;;2.25;1.65;;;25.00;52.50;;;;;;6154160;23;20001;-71
2021/06/05 08:06:49;;;;;;;3.42;1.70;;;25.00;51.90;;;;;;6154176;23;20330;-71
2021/06/05 08:09:16;;;;;;;5.00;1.70;;;25.00;52.10;;;;;;6154241;23;19997;-71
2021/06/05 08:11:42;;;;;;;2.90;1.90;;;25.00;52.50;;;;;;6154383;23;20005;-71
2021/06/05 08:14:09;;;;;;;6.72;2.20;;;24.80;52.20;;;;;;6154193;23;20033;-71
2021/06/05 08:16:37;;;;;;;2.92;1.83;;;24.60;53.00;;;;;;6154734;23;20024;-71
2021/06/05 08:19:11;;;;;;;2.45;1.92;;;24.70;53.50;;;;;;6154144;23;20008;-72
2021/06/05 08:21:45;;;;;;;1.95;1.75;;;24.70;53.10;;;;;;6154589;23;20006;-71
2021/06/05 08:24:11;;;;;;;3.13;1.92;;;24.60;53.10;;;;;;6154035;23;20426;-71
2021/06/05 08:26:38;;;;;;;4.43;2.08;;;24.60;53.40;;;;;;6154387;23;20033;-71
2021/06/05 08:29:04;;;;;;;3.17;1.80;;;24.50;53.50;;;;;;6154216;23;20057;-71
2021/06/05 08:31:30;;;;;;;4.28;2.30;;;24.60;54.10;;;;;;6154467;23;20108;-71
2021/06/05 08:33:55;;;;;;;8.48;2.20;;;24.60;54.00;;;;;;6154558;23;20001;-71
2021/06/05 08:36:24;;;;;;;3.30;1.80;;;24.70;54.70;;;;;;6154091;23;20425;-71
2021/06/05 08:38:51;;;;;;;7.15;2.22;;;24.70;53.90;;;;;;6154292;23;20080;-71
2021/06/05 08:41:45;;;;;;;4.95;1.90;;;24.80;54.20;;;;;;6154086;23;20056;-71
2021/06/05 08:44:20;;;;;;;3.92;2.10;;;24.90;53.60;;;;;;6154150;23;20057;-71
2021/06/05 08:46:51;;;;;;;1.70;1.60;;;25.00;53.10;;;;;;6154698;23;20333;-71
2021/06/05 08:49:27;;;;;;;2.40;2.03;;;25.00;53.30;;;;;;6154007;23;20085;-71
2021/06/05 08:51:56;;;;;;;4.40;1.80;;;25.00;53.20;;;;;;6149076;23;20020;-71
2021/06/05 08:54:34;;;;;;;5.90;2.13;;;25.10;53.20;;;;;;6124639;23;20002;-71
2021/06/05 08:57:12;;;;;;;3.00;1.83;;;25.20;53.60;;;;;;6125153;23;20002;-71
2021/06/05 08:59:42;;;;;;;3.13;1.92;;;25.30;52.80;;;;;;6124631;23;20056;-72
2021/06/05 09:02:08;;;;;;;7.60;2.13;;;25.20;52.30;;;;;;6124910;23;20002;-71
2021/06/05 09:04:36;;;;;;;4.13;2.20;;;25.10;52.50;;;;;;6124662;23;20002;-71
2021/06/05 09:07:08;;;;;;;3.05;1.85;;;25.20;52.10;;;;;;6124564;23;20077;-71
2021/06/05 09:09:37;;;;;;;2.85;1.70;;;25.30;52.00;;;;;;6124972;23;20029;-71
2021/06/05 09:12:05;;;;;;;2.67;1.92;;;25.50;51.20;;;;;;6124714;23;20006;-71
2021/06/05 09:14:32;;;;;;;4.13;1.85;;;25.60;51.40;;;;;;6124324;23;20405;-71
2021/06/05 09:17:02;;;;;;;5.72;2.00;;;25.80;50.30;;;;;;6124533;23;20002;-71
2021/06/05 09:19:35;;;;;;;5.90;2.20;;;26.00;49.90;;;;;;6126545;23;20010;-71
2021/06/05 09:22:07;;;;;;;4.53;1.73;;;26.10;49.90;;;;;;6124577;23;20095;-71
2021/06/05 09:24:41;;;;;;;6.47;2.25;;;26.20;49.50;;;;;;6126302;23;20050;-71
2021/06/05 09:27:09;;;;;;;4.22;1.80;;;26.30;49.40;;;;;;6126524;23;20013;-71
2021/06/05 09:30:03;;;;;;;3.17;1.80;;;26.20;48.80;;;;;;6126666;23;20086;-71
2021/06/05 09:32:55;;;;;;;2.60;1.65;;;26.10;48.60;;;;;;6125945;23;20006;-71
2021/06/05 09:35:28;;;;;;;3.88;1.60;;;26.00;48.20;;;;;;6124386;23;20013;-71
2021/06/05 09:38:11;;;;;;;3.70;2.00;;;26.10;48.50;;;;;;6126091;23;20438;-71
2021/06/05 09:40:37;;;;;;;4.72;1.77;;;26.00;48.10;;;;;;6126316;23;20030;-71
2021/06/05 09:43:09;;;;;;;4.15;1.77;;;26.00;48.50;;;;;;6126031;23;20001;-71
2021/06/05 09:45:37;;;;;;;5.55;1.80;;;25.90;48.70;;;;;;6126355;23;20026;-71
2021/06/05 09:48:21;;;;;;;3.55;1.80;;;25.80;48.90;;;;;;6126436;23;20002;-71
2021/06/05 09:50:49;;;;;;;5.15;1.70;;;25.80;49.10;;;;;;6126311;23;20345;-71
2021/06/05 09:53:25;;;;;;;4.95;2.03;;;25.70;49.20;;;;;;6125275;23;20018;-71
2021/06/05 09:55:51;;;;;;;10.40;2.05;;;25.80;49.00;;;;;;6126076;23;20006;-71
2021/06/05 09:58:37;;;;;;;3.97;1.65;;;25.70;48.90;;;;;;6125934;23;20005;-71
2021/06/05 10:01:33;;;;;;;2.83;1.90;;;25.80;48.70;;;;;;6125947;23;20326;-71
2021/06/05 10:04:08;;;;;;;5.93;2.13;;;25.80;49.50;;;;;;6107770;23;20017;-71
2021/06/05 10:06:37;;;;;;;4.45;2.00;;;25.80;49.30;;;;;;6125733;23;20438;-71
2021/06/05 10:09:31;;;;;;;4.68;1.67;;;25.80;49.50;;;;;;6125873;23;20371;-71
2021/06/05 10:12:06;;;;;;;2.75;1.75;;;25.90;49.50;;;;;;6126191;23;20145;-73
2021/06/05 10:15:04;;;;;;;2.90;2.00;;;25.80;49.00;;;;;;6125528;23;20036;-73
2021/06/05 10:17:39;;;;;;;3.38;1.80;;;25.80;49.20;;;;;;6117805;23;20006;-73
2021/06/05 10:20:35;;;;;;;5.90;2.20;;;25.80;49.60;;;;;;6125930;23;20081;-72
2021/06/05 10:23:01;;;;;;;4.95;1.90;;;26.00;50.20;;;;;;6125601;23;19998;-73
2021/06/05 10:25:38;;;;;;;2.92;2.08;;;26.10;50.20;;;;;;6125976;23;20013;-73
2021/06/05 10:28:21;;;;;;;4.72;1.92;;;26.00;49.50;;;;;;6126111;23;20034;-73
2021/06/05 10:30:57;;;;;;;5.65;2.10;;;26.10;49.40;;;;;;6126033;23;20081;-73
2021/06/05 10:33:43;;;;;;;7.15;2.20;;;26.00;49.00;;;;;;6125388;23;20005;-73
2021/06/05 10:36:23;;;;;;;12.90;1.90;;;25.90;48.70;;;;;;6125991;23;20014;-73
2021/06/05 10:38:50;;;;;;;11.20;2.20;;;26.00;49.30;;;;;;6125778;23;20002;-73
2021/06/05 10:41:32;;;;;;;3.95;1.92;;;26.10;49.10;;;;;;6125601;23;20013;-73
2021/06/05 10:43:58;;;;;;;5.35;1.85;;;26.30;48.60;;;;;;6125978;23;20002;-73
2021/06/05 10:46:44;;;;;;;8.25;2.03;;;26.30;48.60;;;;;;6125553;23;20327;-73
2021/06/05 10:49:26;;;;;;;2.45;1.60;;;26.40;47.80;;;;;;6125732;23;20041;-73
2021/06/05 10:52:07;;;;;;;11.48;2.30;;;26.30;46.90;;;;;;6125383;23;20025;-73
2021/06/05 10:54:42;;;;;;;4.88;1.60;;;26.30;47.20;;;;;;6124089;23;20010;-73
2021/06/05 10:57:25;;;;;;;7.00;2.60;;;26.30;46.50;;;;;;6125716;23;20002;-73
2021/06/05 10:59:56;;;;;;;3.25;1.63;;;26.30;46.50;;;;;;6125547;23;20002;-73
2021/06/05 11:02:37;;;;;;;5.93;1.90;;;26.20;46.10;;;;;;6125392;23;20419;-73
2021/06/05 11:05:18;;;;;;;4.20;1.63;;;26.20;46.70;;;;;;6125431;23;20033;-73
2021/06/05 11:07:47;;;;;;;3.80;1.30;;;26.30;44.80;;;;;;6125552;23;20077;-73
2021/06/05 11:10:46;;;;;;;2.75;1.60;;;26.40;47.10;;;;;;6125393;23;20002;-73
2021/06/05 11:13:32;;;;;;;1.98;1.35;;;26.40;46.80;;;;;;6125460;23;20029;-73
2021/06/05 11:16:17;;;;;;;2.67;1.60;;;26.40;43.90;;;;;;6125320;23;20017;-73
2021/06/05 11:18:44;;;;;;;2.55;1.70;;;26.40;44.30;;;;;;6125314;23;19998;-73
2021/06/05 11:21:22;;;;;;;3.60;1.83;;;26.40;44.80;;;;;;6125695;23;20080;-73
2021/06/05 11:23:56;;;;;;;7.00;1.85;;;26.50;44.60;;;;;;6125337;23;20008;-73
2021/06/05 11:26:37;;;;;;;3.35;1.52;;;26.50;46.10;;;;;;6125204;23;20069;-73
2021/06/05 11:29:09;;;;;;;5.00;1.60;;;26.60;46.70;;;;;;6125258;23;20060;-73
2021/06/05 11:31:40;;;;;;;2.38;1.42;;;26.70;45.90;;;;;;6125227;23;20006;-73
2021/06/05 11:34:07;;;;;;;15.68;2.00;;;26.80;46.00;;;;;;6125269;23;20081;-73
2021/06/05 11:36:36;;;;;;;3.03;1.60;;;26.90;45.50;;;;;;6125442;23;20014;-71
2021/06/05 11:39:27;;;;;;;4.28;1.95;;;26.90;44.40;;;;;;6125226;23;20333;-71
2021/06/05 11:41:55;;;;;;;6.38;1.33;;;26.80;44.50;;;;;;6083123;23;20077;-73
2021/06/05 11:44:37;;;;;;;5.15;1.50;;;26.90;44.70;;;;;;6124811;23;20013;-73
2021/06/05 11:47:20;;;;;;;5.35;1.98;;;26.90;43.70;;;;;;6125615;23;20010;-73
2021/06/05 11:50:10;;;;;;;4.13;2.00;;;26.80;44.10;;;;;;6125080;23;20009;-73
2021/06/05 11:52:41;;;;;;;3.17;1.77;;;26.70;44.80;;;;;;6108881;23;20032;-73
2021/06/05 11:55:13;;;;;;;2.67;1.60;;;26.80;46.20;;;;;;6123421;23;20037;-73
2021/06/05 11:57:43;;;;;;;6.88;1.40;;;26.80;45.50;;;;;;6125138;23;20006;-73
2021/06/05 12:00:17;;;;;;;2.17;1.48;;;26.80;43.50;;;;;;6125060;23;20035;-73
2021/06/05 12:02:54;;;;;;;7.30;2.08;;;26.70;42.60;;;;;;6125096;23;19998;-73
2021/06/05 12:05:22;;;;;;;4.57;1.55;;;26.70;42.30;;;;;;6124815;23;20442;-71
2021/06/05 12:07:49;;;;;;;7.78;1.52;;;26.70;41.80;;;;;;6124982;23;20315;-71
2021/06/05 12:10:41;;;;;;;2.17;1.40;;;26.70;42.40;;;;;;6124733;23;20001;-71
2021/06/05 12:13:36;;;;;;;2.33;1.30;;;26.70;41.60;;;;;;6125048;23;20508;-71
2021/06/05 12:16:23;;;;;;;4.88;1.65;;;26.60;41.70;;;;;;6124959;23;20560;-71
2021/06/05 12:18:51;;;;;;;2.08;1.40;;;26.60;41.70;;;;;;6124909;23;20002;-71
2021/06/05 12:21:34;;;;;;;25.67;2.00;;;26.60;41.80;;;;;;6124743;23;20006;-71
2021/06/05 12:24:17;;;;;;;7.72;1.58;;;26.60;41.90;;;;;;6124853;23;20005;-71
2021/06/05 12:26:55;;;;;;;2.85;1.40;;;26.70;41.80;;;;;;6125363;23;20146;-73
2021/06/05 12:29:26;;;;;;;3.78;1.73;;;26.70;41.70;;;;;;6124779;23;20037;-73
2021/06/05 12:31:54;;;;;;;4.60;1.50;;;26.70;43.20;;;;;;6124883;23;20002;-73
2021/06/05 12:34:35;;;;;;;3.22;1.80;;;26.70;43.80;;;;;;6124795;23;20133;-73
2021/06/05 12:37:24;;;;;;;5.22;1.65;;;26.50;43.40;;;;;;6124962;23;20084;-73
2021/06/05 12:39:56;;;;;;;3.83;2.08;;;26.60;43.70;;;;;;6124773;23;20312;-73
2021/06/05 12:42:34;;;;;;;1.77;1.50;;;26.70;43.00;;;;;;6124769;23;20005;-73
2021/06/05 12:45:15;;;;;;;4.32;1.50;;;26.60;43.20;;;;;;6124849;23;20006;-70
2021/06/05 12:47:47;;;;;;;3.13;1.23;;;26.70;43.30;;;;;;6124867;23;20005;-70
2021/06/05 12:50:19;;;;;;;6.47;1.67;;;26.70;43.00;;;;;;6124655;23;20446;-71
2021/06/05 12:52:48;;;;;;;4.65;1.50;;;26.80;42.90;;;;;;6125684;23;20420;-73
2021/06/05 12:55:34;;;;;;;2.85;1.67;;;26.80;43.10;;;;;;6126880;23;20017;-72
2021/06/05 12:58:05;;;;;;;3.08;1.58;;;26.80;42.50;;;;;;6126793;23;20118;-72
2021/06/05 13:00:36;;;;;;;5.35;1.50;;;26.80;42.30;;;;;;6126620;23;20002;-72
2021/06/05 13:03:08;;;;;;;1.40;1.30;;;26.70;42.20;;;;;;6125090;23;20010;-72
2021/06/05 13:05:36;;;;;;;3.28;1.30;;;26.60;42.30;;;;;;6124960;23;20430;-72
2021/06/05 13:08:19;;;;;;;2.15;1.30;;;26.60;42.30;;;;;;6127006;23;20009;-73
2021/06/05 13:10:47;;;;;;;6.53;1.50;;;26.50;41.90;;;;;;6125003;23;20005;-73
2021/06/05 13:13:20;;;;;;;4.20;1.60;;;26.50;42.40;;;;;;6126838;23;20029;-72
2021/06/05 13:15:57;;;;;;;13.32;1.98;;;26.50;42.60;;;;;;6124934;23;20040;-72
2021/06/05 13:18:37;;;;;;;1.83;1.48;;;26.50;42.60;;;;;;6124589;23;20101;-72
2021/06/05 13:21:07;;;;;;;1.88;1.25;;;26.40;42.30;;;;;;6126577;23;20002;-72
2021/06/05 13:23:37;;;;;;;3.10;1.50;;;26.40;42.60;;;;;;6126280;23;20016;-72
2021/06/05 13:26:24;;;;;;;2.67;1.40;;;26.40;42.60;;;;;;6126323;23;20005;-72
2021/06/05 13:28:50;;;;;;;5.70;1.40;;;26.30;42.80;;;;;;6126447;23;20084;-72
2021/06/05 13:31:36;;;;;;;5.78;1.70;;;26.30;42.50;;;;;;6126378;23;20037;-72
2021/06/05 13:34:18;;;;;;;4.78;1.60;;;26.30;43.00;;;;;;6126295;23;20005;-72
2021/06/05 13:36:45;;;;;;;2.63;1.38;;;26.20;43.30;;;;;;6124769;23;20323;-72
2021/06/05 13:39:17;;;;;;;2.85;1.50;;;26.20;43.20;;;;;;6126626;23;20076;-72
2021/06/05 13:41:47;;;;;;;1.83;1.60;;;26.20;43.50;;;;;;6126725;23;20006;-72
2021/06/05 13:44:14;;;;;;;4.22;1.48;;;26.30;44.00;;;;;;6126041;23;20434;-72
2021/06/05 13:46:41;;;;;;;7.35;1.98;;;26.30;44.10;;;;;;6125028;23;20038;-73
2021/06/05 13:49:07;;;;;;;4.82;2.00;;;26.30;44.30;;;;;;6126171;23;20005;-72
2021/06/05 13:51:36;;;;;;;18.15;2.60;;;26.40;44.40;;;;;;6126008;23;20503;-72
2021/06/05 13:54:02;;;;;;;2.08;1.88;;;26.40;44.10;;;;;;6126566;23;20010;-72
2021/06/05 13:56:30;;;;;;;5.43;2.13;;;26.40;44.30;;;;;;6125996;23;20037;-72
2021/06/05 13:58:55;;;;;;;4.47;1.90;;;26.40;44.60;;;;;;6126126;23;19998;-72
2021/06/05 14:01:25;;;;;;;3.67;1.60;;;26.40;44.60;;;;;;6126228;23;20006;-72
2021/06/05 14:03:51;;;;;;;3.92;1.70;;;26.40;44.50;;;;;;6125785;23;19998;-73
2021/06/05 14:06:17;;;;;;;6.53;1.80;;;26.30;44.90;;;;;;6126198;23;19998;-72
2021/06/05 14:08:44;;;;;;;3.88;1.83;;;26.40;44.50;;;;;;6125869;23;20076;-73
2021/06/05 14:11:16;;;;;;;4.30;1.50;;;26.30;44.40;;;;;;6126132;23;20460;-72
2021/06/05 14:13:44;;;;;;;2.15;1.50;;;26.30;44.40;;;;;;6125838;23;20454;-72
2021/06/05 14:16:10;;;;;;;4.10;1.52;;;26.20;44.30;;;;;;6125932;23;20037;-72
2021/06/05 14:18:36;;;;;;;2.08;1.50;;;26.20;44.40;;;;;;6125836;23;20002;-72
2021/06/05 14:21:04;;;;;;;1.70;1.60;;;26.20;44.60;;;;;;6126289;23;20326;-72
2021/06/05 14:23:30;;;;;;;6.28;1.63;;;26.20;44.50;;;;;;6126046;23;20002;-72
2021/06/05 14:25:56;;;;;;;1.60;1.50;;;26.20;44.80;;;;;;6125967;23;20012;-72
2021/06/05 14:28:25;;;;;;;6.03;1.60;;;26.20;45.00;;;;;;6125760;23;20037;-72
2021/06/05 14:30:54;;;;;;;4.38;2.10;;;26.30;45.30;;;;;;6126324;23;20037;-72
2021/06/05 14:33:22;;;;;;;6.60;2.00;;;26.30;45.20;;;;;;6125838;23;20002;-72
2021/06/05 14:35:50;;;;;;;5.45;1.63;;;26.30;45.30;;;;;;6125962;23;20037;-72
2021/06/05 14:38:17;;;;;;;4.43;1.60;;;26.40;45.10;;;;;;6125790;23;20005;-72
2021/06/05 14:40:43;;;;;;;6.68;1.73;;;26.50;44.30;;;;;;6125839;23;20088;-73
2021/06/05 14:43:10;;;;;;;2.08;1.50;;;26.40;44.30;;;;;;6125731;23;20006;-72
2021/06/05 14:45:46;;;;;;;5.30;1.58;;;26.30;44.20;;;;;;6125245;23;20493;-72
2021/06/05 14:48:13;;;;;;;3.10;1.67;;;26.40;45.20;;;;;;6125744;23;20005;-73
2021/06/05 14:50:41;;;;;;;9.63;1.90;;;26.40;45.40;;;;;;6125387;23;20002;-73
2021/06/05 14:53:08;;;;;;;6.82;1.80;;;26.40;45.90;;;;;;6125440;23;20044;-72
2021/06/05 14:55:36;;;;;;;6.70;2.10;;;26.40;45.30;;;;;;6125586;23;20092;-72
2021/06/05 14:58:04;;;;;;;11.73;2.85;;;26.50;45.60;;;;;;6125589;23;20005;-73
2021/06/05 15:00:30;;;;;;;8.05;1.73;;;26.50;46.70;;;;;;6124891;23;20138;-73
2021/06/05 15:02:56;;;;;;;3.53;1.60;;;26.50;46.20;;;;;;6125354;23;19998;-72
2021/06/05 15:05:25;;;;;;;10.48;1.90;;;26.40;45.30;;;;;;6125404;23;20013;-72
2021/06/05 15:07:52;;;;;;;3.15;1.75;;;26.50;45.60;;;;;;6125877;23;20002;-72
2021/06/05 15:10:19;;;;;;;15.45;2.10;;;26.50;45.50;;;;;;6125465;23;20326;-73
2021/06/05 15:12:45;;;;;;;9.38;2.60;;;26.50;45.00;;;;;;6125324;23;20005;-73
2021/06/05 15:15:11;;;;;;;2.85;2.00;;;26.40;45.50;;;;;;6124803;23;20422;-73
2021/06/05 15:17:37;;;;;;;2.83;2.33;;;26.40;45.40;;;;;;6125301;23;20002;-73
2021/06/05 15:20:06;;;;;;;9.65;1.75;;;26.40;45.20;;;;;;6125347;23;20093;-73
2021/06/05 15:22:32;;;;;;;8.07;2.10;;;26.30;45.00;;;;;;6125224;23;19998;-73
2021/06/05 15:24:58;;;;;;;6.57;2.30;;;26.20;45.20;;;;;;6125223;23;20064;-73
2021/06/05 15:27:24;;;;;;;7.88;2.40;;;26.20;45.20;;;;;;6125548;23;20006;-73
2021/06/05 15:29:50;;;;;;;9.38;1.70;;;26.10;45.40;;;;;;6125262;23;20311;-72
2021/06/05 15:32:15;;;;;;;7.78;2.20;;;26.00;45.30;;;;;;6125335;23;20009;-73
2021/06/05 15:34:41;;;;;;;5.35;2.00;;;26.00;45.60;;;;;;6125315;23;20350;-73
2021/06/05 15:37:07;;;;;;;1.60;1.50;;;26.00;46.00;;;;;;6125282;23;20010;-72
2021/06/05 15:39:33;;;;;;;10.63;2.53;;;26.00;46.30;;;;;;6124983;23;20073;-72
2021/06/05 15:41:59;;;;;;;6.07;2.05;;;26.00;45.80;;;;;;6125111;23;20080;-72
2021/06/05 15:44:24;;;;;;;5.90;1.90;;;25.90;45.20;;;;;;6124925;23;19998;-73
2021/06/05 15:46:50;;;;;;;9.35;7.18;;;25.90;45.80;;;;;;6125308;23;20005;-73
2021/06/05 15:49:17;;;;;;;5.03;3.00;;;26.00;47.10;;;;;;6125042;23;20010;-73
2021/06/05 15:51:47;;;;;;;4.78;2.20;;;25.90;46.50;;;;;;6124735;23;20038;-72
2021/06/05 15:54:17;;;;;;;5.47;1.88;;;25.80;46.40;;;;;;6125118;23;20010;-73
2021/06/05 15:56:44;;;;;;;8.88;3.50;;;25.80;46.20;;;;;;6125124;23;20434;-73
2021/06/05 15:59:10;;;;;;;10.10;5.78;;;25.70;46.50;;;;;;6124926;23;20426;-72
2021/06/05 16:01:38;;;;;;;4.65;2.78;;;25.60;46.70;;;;;;6124925;23;20008;-73
2021/06/05 16:04:07;;;;;;;9.32;2.55;;;25.60;46.80;;;;;;6124908;23;20005;-73
2021/06/05 16:06:34;;;;;;;4.25;1.98;;;25.60;47.10;;;;;;6124832;23;19998;-73
2021/06/05 16:09:01;;;;;;;4.47;1.70;;;25.50;47.40;;;;;;6125223;23;20010;-73
2021/06/05 16:11:27;;;;;;;1.73;1.63;;;25.40;47.30;;;;;;6124873;23;20006;-73
2021/06/05 16:13:53;;;;;;;4.03;1.42;;;25.30;47.80;;;;;;6124889;23;20010;-73
2021/06/05 16:16:19;;;;;;;2.65;1.92;;;25.20;46.90;;;;;;6124840;23;20016;-73
2021/06/05 16:18:45;;;;;;;4.88;1.52;;;25.00;47.10;;;;;;6124821;23;20002;-73
2021/06/05 16:21:16;;;;;;;2.45;1.88;;;25.00;47.20;;;;;;6125427;23;20010;-73
2021/06/05 16:23:42;;;;;;;5.13;1.90;;;24.90;47.50;;;;;;6124763;23;20002;-73
2021/06/05 16:26:11;;;;;;;3.88;1.65;;;24.80;47.40;;;;;;6124745;23;20006;-73
2021/06/05 16:28:38;;;;;;;4.60;1.58;;;24.80;47.50;;;;;;6125174;23;20338;-73
2021/06/05 16:31:04;;;;;;;4.63;1.55;;;24.70;47.10;;;;;;6124790;23;20426;-72
2021/06/05 16:33:30;;;;;;;3.65;1.90;;;24.70;47.90;;;;;;6123428;23;20062;-73
2021/06/05 16:35:58;;;;;;;3.03;1.52;;;24.70;47.30;;;;;;6124776;23;20094;-73
2021/06/05 16:38:25;;;;;;;1.83;1.30;;;24.60;46.40;;;;;;6123191;23;20330;-73
2021/06/05 16:40:52;;;;;;;3.33;1.30;;;24.50;46.20;;;;;;6124570;23;20002;-73
2021/06/05 16:43:20;;;;;;;6.20;2.00;;;24.40;46.10;;;;;;6124886;23;20427;-73
2021/06/05 16:45:46;;;;;;;3.63;2.03;;;24.20;46.90;;;;;;6124861;23;20006;-73
2021/06/05 16:48:12;;;;;;;2.40;1.70;;;24.20;48.10;;;;;;6124720;23;20008;-72
2021/06/05 16:50:42;;;;;;;3.20;1.75;;;24.10;48.60;;;;;;6124569;23;20015;-72
2021/06/05 16:53:10;;;;;;;3.13;2.03;;;24.00;49.10;;;;;;6124424;23;20037;-73
2021/06/05 16:55:37;;;;;;;3.58;1.85;;;24.00;49.60;;;;;;6124470;23;20010;-73
2021/06/05 16:58:05;;;;;;;6.28;2.42;;;23.90;50.10;;;;;;6124870;23;20002;-72
2021/06/05 17:00:40;;;;;;;3.35;1.88;;;23.90;50.60;;;;;;6124504;23;20068;-73
2021/06/05 17:03:07;;;;;;;4.70;2.00;;;24.00;50.90;;;;;;6124845;23;20539;-73
2021/06/05 17:05:33;;;;;;;4.72;1.52;;;23.90;51.20;;;;;;6124538;23;20002;-73
2021/06/05 17:07:59;;;;;;;2.88;1.83;;;23.90;50.90;;;;;;6124828;23;19998;-73
2021/06/05 17:10:28;;;;;;;2.80;2.10;;;23.90;50.60;;;;;;6124640;23;20390;-72
2021/06/05 17:12:54;;;;;;;6.05;2.17;;;23.90;50.10;;;;;;6124871;23;20440;-72
2021/06/05 17:15:25;;;;;;;4.40;1.63;;;23.90;48.80;;;;;;6124553;23;20014;-73
2021/06/05 17:17:51;;;;;;;2.80;1.55;;;24.00;48.30;;;;;;6124678;23;20006;-72
2021/06/05 17:20:19;;;;;;;2.33;1.60;;;24.00;46.90;;;;;;6123090;23;20016;-72
2021/06/05 17:22:46;;;;;;;2.10;1.80;;;24.00;46.50;;;;;;6124821;23;20303;-72
2021/06/05 17:25:13;;;;;;;3.25;1.40;;;24.00;46.40;;;;;;6124621;23;20002;-72
2021/06/05 17:27:39;;;;;;;2.47;1.50;;;24.00;46.10;;;;;;6124439;23;19998;-73
2021/06/05 17:30:06;;;;;;;1.77;1.40;;;24.00;45.70;;;;;;6124531;23;20053;-73
2021/06/05 17:32:32;;;;;;;5.43;1.48;;;24.00;46.00;;;;;;6124547;23;20081;-73
2021/06/05 17:34:58;;;;;;;3.97;1.30;;;23.90;46.10;;;;;;6124456;23;20052;-73
2021/06/05 17:37:24;;;;;;;2.17;1.48;;;23.90;46.00;;;;;;6123001;23;20089;-73
2021/06/05 17:39:51;;;;;;;1.98;1.50;;;23.90;46.20;;;;;;6125821;23;20318;-72
2021/06/05 17:42:17;;;;;;;2.67;1.67;;;23.80;46.20;;;;;;6126179;23;20491;-73
2021/06/05 17:44:43;;;;;;;5.80;1.60;;;23.80;46.80;;;;;;6126058;23;20084;-72
2021/06/05 17:47:09;;;;;;;3.08;1.50;;;23.80;47.40;;;;;;6126596;23;20002;-73
2021/06/05 17:49:35;;;;;;;3.03;1.60;;;23.80;48.10;;;;;;6124400;23;20012;-72
2021/06/05 17:52:01;;;;;;;2.88;2.00;;;23.70;47.70;;;;;;6125978;23;20033;-72
2021/06/05 17:54:28;;;;;;;2.85;2.08;;;23.60;47.70;;;;;;6125988;23;20005;-72
2021/06/05 17:56:57;;;;;;;2.33;2.10;;;23.50;48.10;;;;;;6126194;23;20033;-72
2021/06/05 17:59:24;;;;;;;2.20;1.48;;;23.50;48.40;;;;;;6126010;23;19998;-72
2021/06/05 18:01:51;;;;;;;2.53;1.85;;;23.40;49.10;;;;;;6125981;23;20002;-73
2021/06/05 18:04:21;;;;;;;2.85;1.95;;;23.30;48.80;;;;;;6126112;23;20024;-72
2021/06/05 18:06:48;;;;;;;1.90;1.73;;;23.20;48.90;;;;;;6126313;23;19998;-72
2021/06/05 18:09:13;;;;;;;6.95;2.05;;;23.00;49.50;;;;;;6124399;23;20010;-72
2021/06/05 18:11:52;;;;;;;5.53;2.53;;;22.90;50.10;;;;;;6125855;23;20419;-72
2021/06/05 18:14:24;;;;;;;5.70;2.10;;;22.80;50.50;;;;;;6124394;23;20412;-72
2021/06/05 18:16:50;;;;;;;3.45;2.40;;;22.50;50.90;;;;;;6125780;23;20014;-72
2021/06/05 18:19:17;;;;;;;3.60;2.42;;;22.40;50.90;;;;;;6126113;23;20002;-72
2021/06/05 18:21:46;;;;;;;3.03;2.70;;;22.40;50.90;;;;;;6125834;23;20423;-72
2021/06/05 18:24:13;;;;;;;4.85;2.72;;;22.40;50.80;;;;;;6125916;23;19998;-72
2021/06/05 18:26:43;;;;;;;7.13;3.03;;;22.40;50.70;;;;;;6125834;23;20009;-72
2021/06/05 18:29:09;;;;;;;;;;;22.40;50.50;;;;;;6126729;23;20002;-72
2021/06/05 18:31:38;;;;;;;4.40;2.40;;;22.30;50.50;;;;;;6125706;23;20339;-72
2021/06/05 18:34:05;;;;;;;5.75;2.42;;;22.20;50.80;;;;;;6125901;23;20002;-72
2021/06/05 18:36:31;;;;;;;5.95;2.67;;;22.20;50.70;;;;;;6125656;23;20050;-72
2021/06/05 18:38:59;;;;;;;2.95;2.05;;;22.20;50.90;;;;;;6125565;23;20005;-72
2021/06/05 18:41:30;;;;;;;4.38;2.50;;;22.20;50.90;;;;;;6125644;23;20033;-72
2021/06/05 18:43:56;;;;;;;12.32;3.20;;;22.10;51.10;;;;;;6125643;23;20080;-72
2021/06/05 18:46:23;;;;;;;3.90;2.38;;;22.10;51.10;;;;;;6125719;23;20034;-72
2021/06/05 18:48:49;;;;;;;5.10;2.38;;;22.10;50.80;;;;;;6125554;23;19998;-72
2021/06/05 18:51:23;;;;;;;4.85;2.58;;;22.00;51.00;;;;;;6125562;23;20438;-74
2021/06/05 18:53:49;;;;;;;8.18;2.58;;;22.00;50.70;;;;;;6125465;23;20014;-72
2021/06/05 18:56:15;;;;;;;5.53;2.20;;;22.00;50.70;;;;;;6125359;23;20454;-72
2021/06/05 18:58:44;;;;;;;4.70;1.90;;;21.90;50.80;;;;;;6125732;23;20006;-72
2021/06/05 19:01:13;;;;;;;6.55;2.53;;;21.90;51.10;;;;;;6125488;23;20442;-72
2021/06/05 19:03:39;;;;;;;8.70;2.72;;;21.80;51.20;;;;;;6125505;23;20069;-72
2021/06/05 19:06:06;;;;;;;11.20;2.47;;;21.80;51.40;;;;;;6125453;23;20036;-72
2021/06/05 19:08:33;;;;;;;9.90;2.78;;;21.70;51.60;;;;;;6123866;23;20036;-72
2021/06/05 19:11:01;;;;;;;4.13;2.70;;;21.70;52.20;;;;;;6125299;23;20580;-72
2021/06/05 19:13:27;;;;;;;3.95;2.50;;;21.60;52.40;;;;;;6125509;23;20013;-72
2021/06/05 19:15:53;;;;;;;9.07;2.60;;;21.60;52.60;;;;;;6125135;23;20017;-72
2021/06/05 19:18:22;;;;;;;7.60;3.30;;;21.60;52.50;;;;;;6125547;23;20024;-72
2021/06/05 19:20:48;;;;;;;7.03;2.50;;;21.60;52.30;;;;;;6125114;23;20013;-72
2021/06/05 19:23:16;;;;;;;3.13;1.90;;;21.60;52.40;;;;;;6125444;23;19997;-72
2021/06/05 19:25:44;;;;;;;4.85;2.17;;;21.60;52.40;;;;;;6123605;23;20002;-72
2021/06/05 19:28:10;;;;;;;3.65;2.42;;;21.50;52.60;;;;;;6125388;23;20002;-72
2021/06/05 19:30:39;;;;;;;1.90;1.80;;;21.50;53.90;;;;;;6125158;23;20002;-72
2021/06/05 19:33:08;;;;;;;5.93;2.50;;;21.50;54.50;;;;;;6125364;23;20002;-72
2021/06/05 19:35:34;;;;;;;4.83;2.23;;;21.50;54.40;;;;;;6125225;23;20080;-72
2021/06/05 19:38:00;;;;;;;4.45;1.70;;;21.40;54.20;;;;;;6125152;23;20010;-72
2021/06/05 19:40:26;;;;;;;3.53;2.22;;;21.30;53.80;;;;;;6125384;23;20002;-72
2021/06/05 19:42:54;;;;;;;3.92;1.92;;;21.20;54.50;;;;;;6125515;23;20002;-72
2021/06/05 19:45:23;;;;;;;8.88;2.42;;;21.10;55.10;;;;;;6123572;23;20058;-72
2021/06/05 19:47:49;;;;;;;3.20;2.63;;;21.10;55.70;;;;;;6125453;23;20006;-72
2021/06/05 19:50:14;;;;;;;2.22;2.03;;;21.00;55.90;;;;;;6125427;23;20002;-72
2021/06/05 19:52:43;;;;;;;2.45;1.95;;;20.90;56.10;;;;;;6124677;23;20387;-72
2021/06/05 19:55:12;;;;;;;2.63;2.10;;;20.90;56.20;;;;;;6125018;23;20006;-72
2021/06/05 19:57:38;;;;;;;3.90;2.33;;;20.90;56.90;;;;;;6125079;23;20006;-72
2021/06/05 20:00:12;;;;;;;3.70;2.17;;;20.90;57.40;;;;;;6125313;23;20318;-72
2021/06/05 20:02:38;;;;;;;2.70;2.10;;;20.80;57.50;;;;;;6124767;23;20010;-72
2021/06/05 20:05:04;;;;;;;3.47;2.20;;;20.80;58.10;;;;;;6123301;23;20316;-72
2021/06/05 20:07:31;;;;;;;6.20;2.20;;;20.70;58.30;;;;;;6125135;23;20072;-72
2021/06/05 20:09:58;;;;;;;4.97;2.50;;;20.70;58.30;;;;;;6124780;23;20006;-72
2021/06/05 20:12:23;;;;;;;2.50;2.30;;;20.70;58.40;;;;;;6125032;23;20009;-72
2021/06/05 20:14:49;;;;;;;6.63;2.45;;;20.70;58.20;;;;;;6124624;23;20006;-72
2021/06/05 20:17:15;;;;;;;5.38;2.28;;;20.70;58.10;;;;;;6124974;23;20006;-72
2021/06/05 20:19:41;;;;;;;3.80;2.22;;;20.70;58.30;;;;;;6123273;23;20085;-72
2021/06/05 20:22:07;;;;;;;4.18;2.45;;;20.60;58.90;;;;;;6124937;23;20013;-72
2021/06/05 20:24:34;;;;;;;9.10;2.95;;;20.60;59.50;;;;;;6125349;23;20028;-72
2021/06/05 20:27:01;;;;;;;2.58;1.90;;;20.40;59.70;;;;;;6124763;23;20483;-72
2021/06/05 20:29:27;;;;;;;6.10;2.30;;;20.20;60.00;;;;;;6125036;23;20037;-72
2021/06/05 20:31:53;;;;;;;4.13;2.55;;;20.10;60.70;;;;;;6124642;23;20053;-72
2021/06/05 20:34:19;;;;;;;6.07;2.22;;;20.00;61.60;;;;;;6124957;23;19998;-72
2021/06/05 20:36:45;;;;;;;5.03;2.45;;;19.90;61.60;;;;;;6124575;23;20014;-72
2021/06/05 20:39:13;;;;;;;5.80;2.38;;;19.90;61.90;;;;;;6124834;23;20488;-72
2021/06/05 20:41:42;;;;;;;4.28;2.67;;;19.90;62.30;;;;;;6124822;23;20006;-72
2021/06/05 20:44:07;;;;;;;4.03;2.40;;;19.80;62.70;;;;;;6124942;23;19998;-72
2021/06/05 20:46:41;;;;;;;6.97;2.53;;;19.60;63.40;;;;;;6124974;23;20009;-72
2021/06/05 20:49:08;;;;;;;3.42;2.80;;;19.50;63.80;;;;;;6125304;23;20002;-72
2021/06/05 20:51:37;;;;;;;3.15;2.45;;;19.50;64.00;;;;;;6124810;23;20002;-72
2021/06/05 20:54:04;;;;;;;6.07;2.47;;;19.50;64.10;;;;;;6124747;23;20093;-72